Time;durP1;ratioP1;P1;durP2;ratioP2;P2;SDS_P1;SDS_P2;PMS_P1;PMS_P2;Temp;Humidity;BMP_temperature;BMP_pressure;BME280_temperature;BME280_humidity;BME280_pressure;Samples;Min_cycle;Max_cycle;Signal;HPM_P1;HPM_P2
2023/06/12 00:01:17;;;;;;;;;;;21.10;69.90;;;;;;4989917;28;19995;-69
2023/06/12 00:03:43;;;;;;;;;;;21.10;70.70;;;;;;4988257;28;19921;-69
2023/06/12 00:06:09;;;;;;;;;;;21.10;70.00;;;;;;4974617;28;19918;-69
2023/06/12 00:08:35;;;;;;;;;;;21.00;70.70;;;;;;4988943;28;19925;-70
2023/06/12 00:11:02;;;;;;;;;;;21.00;70.20;;;;;;4977537;28;19921;-69
2023/06/12 00:13:28;;;;;;;;;;;21.00;70.70;;;;;;4999866;28;20232;-71
2023/06/12 00:15:53;;;;;;;;;;;20.90;71.20;;;;;;4985998;28;19940;-71
2023/06/12 00:18:19;;;;;;;;;;;20.80;70.80;;;;;;4978556;28;19941;-70
2023/06/12 00:20:44;;;;;;;;;;;20.80;71.10;;;;;;4989088;28;20004;-70
2023/06/12 00:23:10;;;;;;;;;;;20.80;71.10;;;;;;4998030;28;19972;-70
2023/06/12 00:25:36;;;;;;;;;;;20.70;71.20;;;;;;4987196;28;20021;-71
2023/06/12 00:28:05;;;;;;;;;;;20.70;71.30;;;;;;4981678;28;20164;-70
2023/06/12 00:30:30;;;;;;;;;;;20.70;71.50;;;;;;5006944;22;20445;-72
2023/06/12 00:32:56;;;;;;;;;;;20.60;70.90;;;;;;4986395;28;19925;-72
2023/06/12 00:35:21;;;;;;;;;;;20.60;72.00;;;;;;4978656;28;20028;-72
2023/06/12 00:37:47;;;;;;;;;;;20.60;72.40;;;;;;4980909;28;20260;-71
2023/06/12 00:40:13;;;;;;;;;;;20.60;72.70;;;;;;4985058;28;20366;-72
2023/06/12 00:42:46;;;;;;;;;;;20.50;72.90;;;;;;4981347;28;20024;-72
2023/06/12 00:45:16;;;;;;;;;;;20.50;73.00;;;;;;4981762;28;19984;-72
2023/06/12 00:47:42;;;;;;;;;;;20.40;73.50;;;;;;4980496;28;19921;-72
2023/06/12 00:50:12;;;;;;;;;;;20.40;73.30;;;;;;4978931;28;19939;-72
2023/06/12 00:52:43;;;;;;;;;;;20.40;73.40;;;;;;4982268;28;19933;-72
2023/06/12 00:55:09;;;;;;;;;;;20.30;73.80;;;;;;4985659;28;19927;-72
2023/06/12 00:57:36;;;;;;;;;;;20.30;73.60;;;;;;4980027;28;19933;-72
2023/06/12 01:00:05;;;;;;;;;;;20.30;74.20;;;;;;4980654;28;19921;-72
2023/06/12 01:02:31;;;;;;;;;;;20.20;74.30;;;;;;4953031;28;19918;-72
2023/06/12 01:04:57;;;;;;;;;;;20.20;74.50;;;;;;4982632;28;19921;-72
2023/06/12 01:07:38;;;;;;;;;;;20.20;74.40;;;;;;4969089;28;19921;-72
2023/06/12 01:10:22;;;;;;;;;;;20.10;74.70;;;;;;4956604;28;19917;-72
2023/06/12 01:12:51;;;;;;;;;;;20.10;75.00;;;;;;4979671;28;19921;-72
2023/06/12 01:15:16;;;;;;;;;;;20.00;75.20;;;;;;4978274;28;19927;-72
2023/06/12 01:17:42;;;;;;;;;;;20.00;75.70;;;;;;4997224;28;19932;-72
2023/06/12 01:20:11;;;;;;;;;;;20.00;75.90;;;;;;4977410;28;20316;-72
2023/06/12 01:22:40;;;;;;;;;;;19.90;75.50;;;;;;4979530;28;19917;-72
2023/06/12 01:25:10;;;;;;;;;;;19.90;76.10;;;;;;4977780;28;20048;-72
2023/06/12 01:27:36;;;;;;;;;;;19.90;77.10;;;;;;4972307;28;20501;-72
2023/06/12 01:30:01;;;;;;;;;;;19.80;77.20;;;;;;4972658;28;19929;-72
2023/06/12 01:32:29;;;;;;;;;;;19.70;77.60;;;;;;4976688;28;20111;-72
2023/06/12 01:34:58;;;;;;;;;;;19.70;78.30;;;;;;4976024;28;19929;-71
2023/06/12 01:37:27;;;;;;;;;;;19.70;77.70;;;;;;4988589;28;19922;-72
2023/06/12 01:39:55;;;;;;;;;;;19.70;78.50;;;;;;4971835;28;19921;-72
2023/06/12 01:42:22;;;;;;;;;;;19.60;79.50;;;;;;4980722;28;20049;-72
2023/06/12 01:44:49;;;;;;;;;;;19.50;79.90;;;;;;4977039;28;19969;-71
2023/06/12 01:47:14;;;;;;;;;;;19.50;80.40;;;;;;4976977;28;20372;-71
2023/06/12 01:49:40;;;;;;;;;;;19.40;80.40;;;;;;4963453;28;19924;-72
2023/06/12 01:52:06;;;;;;;;;;;19.50;81.30;;;;;;4974120;28;20172;-72
2023/06/12 01:54:33;;;;;;;;;;;19.40;81.20;;;;;;4990578;28;19928;-72
2023/06/12 01:57:02;;;;;;;;;;;19.30;81.80;;;;;;4986502;28;19917;-71
2023/06/12 01:59:27;;;;;;;;;;;19.30;82.70;;;;;;4984642;28;20387;-72
2023/06/12 02:01:52;;;;;;;;;;;19.30;82.70;;;;;;4980985;28;19918;-72
2023/06/12 02:04:19;;;;;;;;;;;19.20;83.20;;;;;;4976885;28;19932;-72
2023/06/12 02:06:45;;;;;;;;;;;19.20;84.20;;;;;;4968929;28;19918;-72
2023/06/12 02:09:10;;;;;;;;;;;19.20;84.40;;;;;;4978089;28;19971;-72
2023/06/12 02:11:36;;;;;;;;;;;19.10;84.90;;;;;;4981393;28;19928;-71
2023/06/12 02:14:01;;;;;;;;;;;19.10;85.30;;;;;;4981805;28;19921;-72
2023/06/12 02:16:27;;;;;;;;;;;19.00;86.20;;;;;;4980477;28;20016;-71
2023/06/12 02:18:53;;;;;;;;;;;19.00;86.60;;;;;;4984280;28;19917;-72
2023/06/12 02:21:21;;;;;;;;;;;19.00;86.70;;;;;;4984395;28;19960;-72
2023/06/12 02:23:47;;;;;;;;;;;18.90;87.10;;;;;;4983227;28;19921;-71
2023/06/12 02:26:12;;;;;;;;;;;18.90;88.10;;;;;;4986226;28;19964;-71
2023/06/12 02:28:40;;;;;;;;;;;18.80;88.30;;;;;;4985838;28;20339;-72
2023/06/12 02:31:08;;;;;;;;;;;18.80;88.80;;;;;;4984971;28;19921;-72
2023/06/12 02:33:34;;;;;;;;;;;18.80;89.40;;;;;;4981648;28;19934;-72
2023/06/12 02:36:00;;;;;;;;;;;18.70;90.00;;;;;;4973007;28;19980;-72
2023/06/12 02:38:28;;;;;;;;;;;18.70;90.20;;;;;;4996267;28;19918;-71
2023/06/12 02:40:53;;;;;;;;;;;18.60;90.70;;;;;;4988085;28;20338;-71
2023/06/12 02:43:18;;;;;;;;;;;18.60;91.40;;;;;;4987447;28;19925;-71
2023/06/12 02:45:44;;;;;;;;;;;18.60;91.40;;;;;;4982821;28;20203;-71
2023/06/12 02:48:10;;;;;;;;;;;18.50;91.80;;;;;;4980933;28;20280;-71
2023/06/12 02:50:35;;;;;;;;;;;18.50;91.80;;;;;;4981194;28;20379;-72
2023/06/12 02:53:00;;;;;;;;;;;18.50;91.70;;;;;;4987211;28;19921;-72
2023/06/12 02:55:26;;;;;;;;;;;18.40;92.30;;;;;;4981879;28;19941;-72
2023/06/12 02:57:53;;;;;;;;;;;18.30;92.50;;;;;;4978630;28;19933;-72
2023/06/12 03:00:18;;;;;;;;;;;18.30;93.10;;;;;;4982054;28;20955;-72
2023/06/12 03:02:45;;;;;;;;;;;18.30;93.40;;;;;;4982628;28;19917;-72
2023/06/12 03:05:14;;;;;;;;;;;18.30;93.80;;;;;;4975181;28;19917;-71
2023/06/12 03:07:41;;;;;;;;;;;18.30;93.80;;;;;;4971074;28;20164;-71
2023/06/12 03:10:07;;;;;;;;;;;18.30;94.10;;;;;;4982004;28;19925;-71
2023/06/12 03:12:34;;;;;;;;;;;18.20;94.40;;;;;;4983994;28;20021;-71
2023/06/12 03:15:00;;;;;;;;;;;18.20;95.00;;;;;;4983995;28;19954;-71
2023/06/12 03:17:25;;;;;;;;;;;18.20;94.70;;;;;;4977546;28;20023;-71
2023/06/12 03:19:51;;;;;;;;;;;18.20;94.90;;;;;;4978767;28;20074;-71
2023/06/12 03:22:16;;;;;;;;;;;18.10;95.20;;;;;;4988526;28;20339;-71
2023/06/12 03:24:43;;;;;;;;;;;18.10;95.30;;;;;;4980842;28;19972;-71
2023/06/12 03:27:10;;;;;;;;;;;18.10;95.40;;;;;;4978303;28;19917;-71
2023/06/12 03:29:35;;;;;;;;;;;18.10;95.60;;;;;;4984676;28;19918;-71
2023/06/12 03:32:01;;;;;;;;;;;18.00;95.90;;;;;;4986086;28;19944;-71
2023/06/12 03:34:26;;;;;;;;;;;18.00;96.60;;;;;;4973489;28;19921;-71
2023/06/12 03:36:52;;;;;;;;;;;18.00;97.00;;;;;;4978226;28;19924;-71
2023/06/12 03:39:18;;;;;;;;;;;17.90;97.10;;;;;;4983229;28;20382;-72
2023/06/12 03:41:54;;;;;;;;;;;17.90;97.60;;;;;;4977532;28;19922;-71
2023/06/12 03:44:19;;;;;;;;;;;17.90;97.90;;;;;;4981150;28;20390;-72
2023/06/12 03:46:45;;;;;;;;;;;17.90;98.30;;;;;;4974334;28;19918;-71
2023/06/12 03:49:14;;;;;;;;;;;17.80;98.10;;;;;;4975238;28;19917;-71
2023/06/12 03:51:39;;;;;;;;;;;17.90;98.60;;;;;;4980487;28;19922;-71
2023/06/12 03:54:06;;;;;;;;;;;17.90;98.90;;;;;;4986974;28;19925;-71
2023/06/12 03:56:31;;;;;;;;;;;17.80;99.10;;;;;;4987993;28;20042;-71
2023/06/12 03:58:57;;;;;;;;;;;17.90;99.10;;;;;;4973819;28;19981;-71
2023/06/12 04:01:22;;;;;;;;;;;17.90;99.50;;;;;;4977582;28;19929;-71
2023/06/12 04:03:48;;;;;;;;;;;17.90;99.70;;;;;;4980215;28;19917;-71
2023/06/12 04:06:14;;;;;;;;;;;17.90;99.60;;;;;;4971259;28;19941;-71
2023/06/12 04:08:40;;;;;;;;;;;17.90;99.90;;;;;;4978057;28;19929;-71
2023/06/12 04:11:09;;;;;;;;;;;17.90;99.90;;;;;;4999912;28;20020;-71
2023/06/12 04:13:35;;;;;;;;;;;17.90;99.90;;;;;;4978529;28;19922;-71
2023/06/12 04:16:00;;;;;;;;;;;17.90;99.90;;;;;;4981355;28;20275;-71
2023/06/12 04:18:26;;;;;;;;;;;17.90;99.90;;;;;;4981302;28;19921;-71
2023/06/12 04:20:54;;;;;;;;;;;17.90;99.90;;;;;;4996418;28;19962;-71
2023/06/12 04:23:20;;;;;;;;;;;17.90;99.90;;;;;;4964524;28;20020;-71
2023/06/12 04:25:50;;;;;;;;;;;17.90;99.90;;;;;;4985954;28;19928;-72
2023/06/12 04:28:16;;;;;;;;;;;17.90;99.90;;;;;;4976062;28;19932;-71
2023/06/12 04:30:44;;;;;;;;;;;17.90;99.90;;;;;;4982799;28;20342;-72
2023/06/12 04:33:11;;;;;;;;;;;17.80;99.90;;;;;;4981237;28;19921;-71
2023/06/12 04:35:37;;;;;;;;;;;17.90;99.90;;;;;;4984260;28;20231;-71
2023/06/12 04:38:04;;;;;;;;;;;17.90;99.90;;;;;;4974928;28;19925;-72
2023/06/12 04:40:36;;;;;;;;;;;17.90;99.90;;;;;;4999671;28;20026;-71
2023/06/12 04:43:06;;;;;;;;;;;17.90;99.90;;;;;;4983063;28;19925;-71
2023/06/12 04:45:32;;;;;;;;;;;17.90;99.90;;;;;;4981358;28;19944;-71
2023/06/12 04:47:57;;;;;;;;;;;17.90;99.90;;;;;;4983250;28;19925;-72
2023/06/12 04:50:23;;;;;;;;;;;17.90;99.90;;;;;;5001735;28;19921;-71
2023/06/12 04:52:50;;;;;;;;;;;18.00;99.90;;;;;;4981946;28;20184;-71
2023/06/12 04:55:20;;;;;;;;;;;17.90;99.90;;;;;;4983066;28;20323;-71
2023/06/12 04:57:47;;;;;;;;;;;18.00;99.90;;;;;;4986127;28;20011;-71
2023/06/12 05:00:15;;;;;;;;;;;18.00;99.90;;;;;;4997271;28;19917;-71
2023/06/12 05:02:43;;;;;;;;;;;18.00;99.90;;;;;;4981949;28;19921;-72
2023/06/12 05:05:09;;;;;;;;;;;18.00;99.90;;;;;;4983300;28;19928;-71
2023/06/12 05:07:35;;;;;;;;;;;18.00;99.90;;;;;;4968841;28;19921;-71
2023/06/12 05:10:01;;;;;;;;;;;18.00;99.90;;;;;;4978110;28;19924;-71
2023/06/12 05:12:27;;;;;;;;;;;18.00;99.90;;;;;;4982397;28;19925;-71
2023/06/12 05:14:52;;;;;;;;;;;18.00;99.90;;;;;;4975219;28;19922;-72
2023/06/12 05:17:18;;;;;;;;;;;18.00;99.90;;;;;;4964143;28;19917;-71
2023/06/12 05:19:43;;;;;;;;;;;18.00;99.90;;;;;;4984927;28;19968;-72
2023/06/12 05:22:09;;;;;;;;;;;18.10;99.90;;;;;;4978610;28;19932;-71
2023/06/12 05:24:35;;;;;;;;;;;18.20;99.90;;;;;;4979860;28;19953;-72
2023/06/12 05:27:01;;;;;;;;;;;18.20;99.90;;;;;;4962516;28;20396;-71
2023/06/12 05:29:26;;;;;;;;;;;18.20;99.90;;;;;;4998415;28;23926;-72
2023/06/12 05:31:52;;;;;;;;;;;18.20;99.90;;;;;;4980154;28;19932;-73
2023/06/12 05:34:17;;;;;;;;;;;18.20;99.90;;;;;;4985012;28;20189;-73
2023/06/12 05:36:46;;;;;;;;;;;18.30;99.90;;;;;;4982160;28;19971;-73
2023/06/12 05:39:12;;;;;;;;;;;18.30;99.90;;;;;;4988011;28;19918;-73
2023/06/12 05:41:37;;;;;;;;;;;18.40;99.90;;;;;;4977771;28;20419;-73
2023/06/12 05:44:07;;;;;;;;;;;18.40;99.90;;;;;;4988711;28;20136;-73
2023/06/12 05:46:32;;;;;;;;;;;18.40;99.90;;;;;;4976191;28;20011;-73
2023/06/12 05:48:58;;;;;;;;;;;18.50;99.90;;;;;;4986941;28;19918;-73
2023/06/12 05:51:24;;;;;;;;;;;18.50;99.90;;;;;;4997831;28;19933;-77
2023/06/12 05:53:52;;;;;;;;;;;18.60;99.90;;;;;;4987773;28;19921;-73
2023/06/12 05:56:18;;;;;;;;;;;18.70;99.90;;;;;;4960947;28;20312;-74
2023/06/12 05:58:44;;;;;;;;;;;18.70;99.90;;;;;;5004808;28;19917;-74
2023/06/12 06:01:11;;;;;;;;;;;18.80;99.90;;;;;;4986984;28;19944;-72
2023/06/12 06:03:42;;;;;;;;;;;18.90;99.90;;;;;;4994076;28;20358;-72
2023/06/12 06:06:08;;;;;;;;;;;18.90;99.90;;;;;;4969552;28;19925;-72
2023/06/12 06:08:33;;;;;;;;;;;18.90;99.90;;;;;;4984212;28;19918;-73
2023/06/12 06:10:59;;;;;;;;;;;19.00;99.90;;;;;;4983804;28;19979;-72
2023/06/12 06:13:24;;;;;;;;;;;19.10;99.90;;;;;;4980830;28;19921;-72
2023/06/12 06:15:50;;;;;;;;;;;19.10;99.90;;;;;;4980794;28;19921;-73
2023/06/12 06:18:16;;;;;;;;;;;19.10;99.90;;;;;;4979649;28;20329;-72
2023/06/12 06:20:41;;;;;;;;;;;19.10;99.90;;;;;;4995579;28;19925;-73
2023/06/12 06:23:07;;;;;;;;;;;19.20;99.90;;;;;;4982164;28;19987;-73
2023/06/12 06:25:32;;;;;;;;;;;19.20;99.90;;;;;;4974225;28;19918;-72
2023/06/12 06:27:58;;;;;;;;;;;19.30;99.90;;;;;;4976314;28;20399;-73
2023/06/12 06:30:23;;;;;;;;;;;19.40;99.90;;;;;;5049618;23;19933;-68
2023/06/12 06:32:50;;;;;;;;;;;19.40;99.90;;;;;;5004087;28;20310;-70
2023/06/12 06:35:15;;;;;;;;;;;19.50;99.90;;;;;;5003060;28;20100;-68
2023/06/12 06:37:41;;;;;;;;;;;19.50;99.90;;;;;;4996105;28;19926;-68
2023/06/12 06:40:08;;;;;;;;;;;19.50;99.90;;;;;;4990954;28;19917;-68
2023/06/12 06:42:34;;;;;;;;;;;19.60;99.90;;;;;;5012042;28;20147;-69
2023/06/12 06:44:59;;;;;;;;;;;19.60;99.90;;;;;;4978213;28;20071;-68
2023/06/12 06:47:25;;;;;;;;;;;19.80;99.90;;;;;;4995658;28;19948;-68
2023/06/12 06:49:51;;;;;;;;;;;19.80;99.90;;;;;;4998067;28;20264;-69
2023/06/12 06:52:22;;;;;;;;;;;19.80;99.90;;;;;;4994953;28;19929;-68
2023/06/12 06:54:47;;;;;;;;;;;19.90;99.90;;;;;;4974276;28;20004;-69
2023/06/12 06:57:15;;;;;;;;;;;20.00;99.90;;;;;;5000313;28;20355;-68
2023/06/12 06:59:41;;;;;;;;;;;20.00;99.90;;;;;;4998467;28;19921;-68
2023/06/12 07:02:07;;;;;;;;;;;20.10;99.90;;;;;;4991296;28;20016;-68
2023/06/12 07:04:32;;;;;;;;;;;20.10;99.90;;;;;;4991726;28;19918;-69
2023/06/12 07:06:57;;;;;;;;;;;20.20;99.90;;;;;;4991989;28;20375;-68
2023/06/12 07:09:24;;;;;;;;;;;20.20;99.90;;;;;;4992981;28;20011;-68
2023/06/12 07:11:50;;;;;;;;;;;20.30;99.90;;;;;;4995248;28;19918;-69
2023/06/12 07:14:16;;;;;;;;;;;20.40;99.90;;;;;;5001947;28;19952;-68
2023/06/12 07:16:41;;;;;;;;;;;20.40;99.90;;;;;;4997839;28;19917;-69
2023/06/12 07:19:07;;;;;;;;;;;20.50;99.90;;;;;;4993310;28;20133;-68
2023/06/12 07:21:32;;;;;;;;;;;20.60;99.90;;;;;;5001434;28;19917;-68
2023/06/12 07:23:58;;;;;;;;;;;20.60;99.90;;;;;;4998843;28;20133;-68
2023/06/12 07:26:23;;;;;;;;;;;20.70;99.90;;;;;;4998153;28;20418;-69
2023/06/12 07:28:49;;;;;;;;;;;20.80;99.90;;;;;;4996649;28;19956;-69
2023/06/12 07:31:15;;;;;;;;;;;20.90;99.90;;;;;;4994968;28;20012;-69
2023/06/12 07:33:41;;;;;;;;;;;20.90;99.90;;;;;;5020968;28;19925;-69
2023/06/12 07:36:07;;;;;;;;;;;21.00;99.90;;;;;;4990602;28;20298;-68
2023/06/12 07:38:32;;;;;;;;;;;21.00;99.90;;;;;;4993064;28;19921;-68
2023/06/12 07:40:58;;;;;;;;;;;21.10;99.90;;;;;;5001685;28;19943;-69
2023/06/12 07:43:24;;;;;;;;;;;21.20;99.90;;;;;;4994465;28;19924;-69
2023/06/12 07:45:49;;;;;;;;;;;21.30;99.90;;;;;;5000099;28;20028;-68
2023/06/12 07:48:15;;;;;;;;;;;21.40;99.90;;;;;;5000489;28;20080;-68
2023/06/12 07:50:42;;;;;;;;;;;21.40;99.90;;;;;;4993975;28;20370;-68
2023/06/12 07:53:08;;;;;;;;;;;21.50;99.90;;;;;;4998414;28;19921;-68
2023/06/12 07:55:35;;;;;;;;;;;21.60;99.90;;;;;;4996769;28;19929;-69
2023/06/12 07:58:01;;;;;;;;;;;21.70;99.90;;;;;;4995594;28;20311;-69
2023/06/12 08:00:27;;;;;;;;;;;21.70;99.90;;;;;;4996782;28;20016;-68
2023/06/12 08:02:57;;;;;;;;;;;21.70;99.90;;;;;;4996964;28;20091;-69
2023/06/12 08:05:23;;;;;;;;;;;21.80;99.90;;;;;;5000129;28;19972;-68
2023/06/12 08:07:48;;;;;;;;;;;21.90;99.90;;;;;;4995001;28;20146;-69
2023/06/12 08:10:14;;;;;;;;;;;22.00;99.90;;;;;;4998398;28;19999;-68
2023/06/12 08:12:39;;;;;;;;;;;22.10;99.90;;;;;;4993716;28;19937;-68
2023/06/12 08:15:05;;;;;;;;;;;22.20;99.90;;;;;;4991862;28;19929;-68
2023/06/12 08:17:31;;;;;;;;;;;22.20;99.90;;;;;;5016527;28;19957;-68
2023/06/12 08:19:57;;;;;;;;;;;22.30;99.90;;;;;;4995745;28;19925;-68
2023/06/12 08:22:23;;;;;;;;;;;22.40;99.90;;;;;;4993594;28;20294;-69
2023/06/12 08:24:48;;;;;;;;;;;22.50;99.90;;;;;;4987620;28;19921;-69
2023/06/12 08:27:14;;;;;;;;;;;22.60;99.90;;;;;;4989015;28;19918;-69
2023/06/12 08:29:40;;;;;;;;;;;22.70;99.90;;;;;;4991816;28;20410;-69
2023/06/12 08:32:07;;;;;;;;;;;22.80;99.90;;;;;;4995453;28;20378;-69
2023/06/12 08:34:32;;;;;;;;;;;22.90;99.90;;;;;;4985595;28;19980;-69
2023/06/12 08:36:58;;;;;;;;;;;23.00;99.90;;;;;;4990931;28;20207;-69
2023/06/12 08:39:23;;;;;;;;;;;23.10;99.90;;;;;;4993112;28;19917;-69
2023/06/12 08:41:58;;;;;;;;;;;23.20;99.90;;;;;;4992585;28;20378;-69
2023/06/12 08:44:24;;;;;;;;;;;23.40;99.90;;;;;;4995135;28;19918;-69
2023/06/12 08:46:53;;;;;;;;;;;23.50;99.90;;;;;;4995839;28;19921;-70
2023/06/12 08:49:19;;;;;;;;;;;23.60;99.90;;;;;;4993434;28;20367;-69
2023/06/12 08:51:44;;;;;;;;;;;23.70;99.90;;;;;;4993627;28;19921;-69
2023/06/12 08:54:10;;;;;;;;;;;23.80;99.90;;;;;;4991781;28;19922;-69
2023/06/12 08:56:36;;;;;;;;;;;23.90;99.90;;;;;;4992559;28;19925;-70
2023/06/12 08:59:03;;;;;;;;;;;24.00;99.90;;;;;;4993328;28;19971;-69
2023/06/12 09:01:29;;;;;;;;;;;24.10;99.90;;;;;;4991164;28;19922;-69
2023/06/12 09:03:57;;;;;;;;;;;24.20;99.30;;;;;;5020992;28;19940;-69
2023/06/12 09:06:23;;;;;;;;;;;24.30;99.70;;;;;;4997470;28;19965;-69
2023/06/12 09:08:48;;;;;;;;;;;24.40;98.70;;;;;;5001867;28;19956;-69
2023/06/12 09:11:14;;;;;;;;;;;24.50;97.80;;;;;;4991727;28;19929;-69
2023/06/12 09:13:41;;;;;;;;;;;24.50;97.20;;;;;;4998312;28;20276;-70
2023/06/12 09:16:09;;;;;;;;;;;24.70;96.40;;;;;;4995177;28;19953;-70
2023/06/12 09:18:46;;;;;;;;;;;24.80;96.50;;;;;;4994364;28;19940;-70
2023/06/12 09:21:12;;;;;;;;;;;24.90;96.40;;;;;;5004926;28;19968;-72
2023/06/12 09:23:40;;;;;;;;;;;24.90;96.40;;;;;;4993885;28;19990;-69
2023/06/12 09:26:15;;;;;;;;;;;25.10;96.70;;;;;;5003276;28;19917;-69
2023/06/12 09:28:44;;;;;;;;;;;25.20;96.00;;;;;;4997158;28;19917;-69
2023/06/12 09:31:14;;;;;;;;;;;25.30;95.90;;;;;;4992375;28;19975;-68
2023/06/12 09:33:40;;;;;;;;;;;25.40;96.10;;;;;;4996547;28;19922;-69
2023/06/12 09:36:06;;;;;;;;;;;25.50;95.90;;;;;;4997001;28;19922;-69
2023/06/12 09:38:32;;;;;;;;;;;25.60;95.90;;;;;;5015862;28;19921;-69
2023/06/12 09:40:58;;;;;;;;;;;25.60;95.50;;;;;;4999130;28;19927;-69
2023/06/12 09:43:25;;;;;;;;;;;25.80;95.40;;;;;;4998817;28;20307;-69
2023/06/12 09:45:51;;;;;;;;;;;25.90;95.90;;;;;;4996188;28;19960;-70
2023/06/12 09:48:16;;;;;;;;;;;25.90;95.30;;;;;;4995188;28;20114;-69
2023/06/12 09:50:42;;;;;;;;;;;26.00;95.50;;;;;;4994857;28;20314;-70
2023/06/12 09:53:09;;;;;;;;;;;26.10;95.70;;;;;;4996368;28;19952;-69
2023/06/12 09:55:35;;;;;;;;;;;26.20;95.20;;;;;;4995135;28;19973;-69
2023/06/12 09:58:03;;;;;;;;;;;26.20;95.20;;;;;;4992336;28;19929;-69
2023/06/12 10:00:29;;;;;;;;;;;26.30;94.40;;;;;;4988337;28;20024;-69
2023/06/12 10:02:56;;;;;;;;;;;26.40;93.40;;;;;;4994384;28;20020;-69
2023/06/12 10:05:26;;;;;;;;;;;26.50;93.00;;;;;;4997083;28;20256;-69
2023/06/12 10:07:53;;;;;;;;;;;26.50;91.70;;;;;;4995160;28;19921;-69
2023/06/12 10:10:19;;;;;;;;;;;26.50;91.80;;;;;;4998429;28;20023;-70
2023/06/12 10:12:45;;;;;;;;;;;26.60;92.10;;;;;;4995543;28;20252;-70
2023/06/12 10:15:15;;;;;;;;;;;26.70;91.10;;;;;;4994662;28;20021;-69
2023/06/12 10:17:41;;;;;;;;;;;26.80;90.50;;;;;;5004861;28;20394;-69
2023/06/12 10:20:08;;;;;;;;;;;26.90;86.20;;;;;;5008214;28;19921;-68
2023/06/12 10:22:34;;;;;;;;;;;26.90;86.40;;;;;;5009085;28;20217;-68
2023/06/12 10:25:00;;;;;;;;;;;26.90;76.80;;;;;;5002410;28;20005;-68
2023/06/12 10:27:26;;;;;;;;;;;26.90;77.40;;;;;;5003739;28;19983;-69
2023/06/12 10:29:59;;;;;;;;;;;26.90;81.60;;;;;;5008084;28;19921;-67
2023/06/12 10:32:24;;;;;;;;;;;27.00;78.10;;;;;;4999997;28;19930;-67
2023/06/12 10:34:54;;;;;;;;;;;26.90;80.90;;;;;;5006012;28;20008;-67
2023/06/12 10:37:19;;;;;;;;;;;27.00;82.50;;;;;;5004022;28;20018;-67
2023/06/12 10:39:49;;;;;;;;;;;27.10;82.60;;;;;;5004566;28;19996;-67
2023/06/12 10:42:17;;;;;;;;;;;27.10;83.20;;;;;;5004289;28;20052;-67
2023/06/12 10:44:46;;;;;;;;;;;27.20;85.10;;;;;;5021856;28;19928;-67
2023/06/12 10:47:23;;;;;;;;;;;27.30;82.10;;;;;;5002719;28;20286;-67
2023/06/12 10:50:02;;;;;;;;;;;27.40;83.20;;;;;;5004946;28;20518;-67
2023/06/12 10:52:27;;;;;;;;;;;27.40;82.60;;;;;;4998499;28;19940;-67
2023/06/12 10:55:12;;;;;;;;;;;27.40;83.90;;;;;;4995143;28;20065;-67
2023/06/12 10:57:38;;;;;;;;;;;27.50;82.70;;;;;;5003466;28;19972;-67
2023/06/12 11:00:09;;;;;;;;;;;27.50;83.00;;;;;;5002563;28;19917;-67
2023/06/12 11:02:35;;;;;;;;;;;27.60;83.30;;;;;;5001533;28;19917;-68
2023/06/12 11:05:03;;;;;;;;;;;27.70;80.80;;;;;;5001329;28;20729;-68
2023/06/12 11:07:31;;;;;;;;;;;27.70;75.70;;;;;;5002571;28;20437;-68
2023/06/12 11:09:57;;;;;;;;;;;27.70;74.50;;;;;;5001432;28;20248;-68
2023/06/12 11:12:22;;;;;;;;;;;27.70;78.40;;;;;;5010544;28;19928;-69
2023/06/12 11:14:48;;;;;;;;;;;27.70;77.80;;;;;;4996564;28;20423;-70
2023/06/12 11:17:13;;;;;;;;;;;27.80;78.10;;;;;;5006886;28;19917;-70
2023/06/12 11:19:39;;;;;;;;;;;27.90;77.80;;;;;;5002528;28;20347;-66
2023/06/12 11:22:05;;;;;;;;;;;28.00;76.90;;;;;;5000071;28;19925;-69
2023/06/12 11:24:30;;;;;;;;;;;28.10;75.60;;;;;;4996870;28;20125;-66
2023/06/12 11:27:00;;;;;;;;;;;28.30;74.30;;;;;;4998822;28;19929;-67
2023/06/12 11:29:29;;;;;;;;;;;28.50;75.10;;;;;;4994351;28;20461;-67
2023/06/12 11:31:59;;;;;;;;;;;28.60;74.00;;;;;;4998900;28;19921;-67
2023/06/12 11:34:31;;;;;;;;;;;28.80;72.70;;;;;;4999512;28;19921;-67
2023/06/12 11:36:56;;;;;;;;;;;28.90;72.10;;;;;;4990214;28;19941;-66
2023/06/12 11:39:22;;;;;;;;;;;29.00;72.40;;;;;;4996702;28;19921;-66
2023/06/12 11:41:49;;;;;;;;;;;29.20;69.80;;;;;;4998865;28;19921;-66
2023/06/12 11:44:15;;;;;;;;;;;29.20;69.60;;;;;;4994370;28;20022;-67
2023/06/12 11:46:40;;;;;;;;;;;29.30;72.00;;;;;;4987921;28;19921;-66
2023/06/12 11:49:06;;;;;;;;;;;29.40;68.70;;;;;;4995094;28;19929;-67
2023/06/12 11:51:32;;;;;;;;;;;29.50;69.80;;;;;;4995634;28;19983;-67
2023/06/12 11:53:59;;;;;;;;;;;29.50;68.90;;;;;;4996208;28;19925;-66
2023/06/12 11:56:24;;;;;;;;;;;29.60;69.40;;;;;;5001069;28;19929;-66
2023/06/12 11:58:51;;;;;;;;;;;29.70;69.40;;;;;;4991179;28;19917;-66
2023/06/12 12:01:27;;;;;;;;;;;29.80;69.70;;;;;;4995659;28;20157;-67
2023/06/12 12:03:57;;;;;;;;;;;29.90;68.70;;;;;;4996500;28;19921;-66
2023/06/12 12:06:26;;;;;;;;;;;30.00;68.60;;;;;;4992655;28;20318;-67
2023/06/12 12:08:58;;;;;;;;;;;30.00;67.40;;;;;;4997827;28;19921;-66
2023/06/12 12:11:28;;;;;;;;;;;30.20;68.80;;;;;;4998164;28;19917;-66
2023/06/12 12:14:03;;;;;;;;;;;30.20;68.20;;;;;;4992824;28;20452;-67
2023/06/12 12:16:29;;;;;;;;;;;30.30;67.70;;;;;;4992985;28;20406;-67
2023/06/12 12:18:56;;;;;;;;;;;30.40;70.30;;;;;;4993563;28;20391;-67
2023/06/12 12:21:22;;;;;;;;;;;30.40;67.60;;;;;;4997926;28;20358;-67
2023/06/12 12:23:48;;;;;;;;;;;30.50;68.10;;;;;;4992974;28;19940;-67
2023/06/12 12:26:13;;;;;;;;;;;30.40;64.10;;;;;;4993111;28;19928;-67
2023/06/12 12:28:39;;;;;;;;;;;30.20;67.00;;;;;;4998558;28;19940;-68
2023/06/12 12:31:05;;;;;;;;;;;30.10;65.20;;;;;;5003562;23;20397;-70
2023/06/12 12:33:30;;;;;;;;;;;30.10;66.50;;;;;;4990640;28;20330;-71
2023/06/12 12:35:59;;;;;;;;;;;30.20;67.90;;;;;;5009124;28;19924;-71
2023/06/12 12:38:25;;;;;;;;;;;30.40;61.00;;;;;;5006315;28;19925;-70
2023/06/12 12:40:53;;;;;;;;;;;30.50;61.40;;;;;;5013035;28;20011;-71
2023/06/12 12:43:18;;;;;;;;;;;30.60;61.90;;;;;;5015242;28;19921;-71
2023/06/12 12:45:44;;;;;;;;;;;30.70;61.30;;;;;;5014579;28;20422;-71
2023/06/12 12:48:12;;;;;;;;;;;30.80;65.70;;;;;;5018082;28;20249;-71
2023/06/12 12:50:38;;;;;;;;;;;30.90;58.80;;;;;;5015961;28;20009;-71
2023/06/12 12:53:03;;;;;;;;;;;31.00;59.10;;;;;;5013780;28;19932;-71
2023/06/12 12:55:32;;;;;;;;;;;31.10;60.60;;;;;;5020066;28;20069;-70
2023/06/12 12:57:58;;;;;;;;;;;31.10;60.70;;;;;;5017016;28;20390;-71
2023/06/12 13:00:23;;;;;;;;;;;31.20;58.50;;;;;;5013366;28;19994;-71
2023/06/12 13:02:49;;;;;;;;;;;31.30;59.10;;;;;;5021243;28;20410;-71
2023/06/12 13:05:15;;;;;;;;;;;31.40;58.50;;;;;;5018769;28;19957;-72
2023/06/12 13:07:41;;;;;;;;;;;31.40;56.90;;;;;;5016088;28;20039;-71
2023/06/12 13:10:12;;;;;;;;;;;31.60;59.70;;;;;;5019529;28;20032;-71
2023/06/12 13:12:38;;;;;;;;;;;31.70;58.90;;;;;;5010003;28;20088;-71
2023/06/12 13:15:04;;;;;;;;;;;31.80;58.90;;;;;;5012136;28;20024;-72
2023/06/12 13:17:30;;;;;;;;;;;31.80;56.40;;;;;;5015570;28;20358;-72
2023/06/12 13:19:55;;;;;;;;;;;31.80;55.60;;;;;;5018287;28;19931;-71
2023/06/12 13:22:21;;;;;;;;;;;31.60;56.70;;;;;;5018203;28;19963;-71
2023/06/12 13:24:47;;;;;;;;;;;31.40;57.30;;;;;;4998855;28;19925;-71
2023/06/12 13:27:12;;;;;;;;;;;31.10;57.60;;;;;;5016332;28;19920;-71
2023/06/12 13:29:38;;;;;;;;;;;30.80;56.70;;;;;;5012998;28;19974;-71
2023/06/12 13:32:05;;;;;;;;;;;30.50;57.00;;;;;;5007669;28;20032;-71
2023/06/12 13:34:30;;;;;;;;;;;30.40;58.00;;;;;;5009201;28;19996;-71
2023/06/12 13:36:56;;;;;;;;;;;30.20;57.60;;;;;;5015098;28;20214;-71
2023/06/12 13:39:21;;;;;;;;;;;30.20;60.50;;;;;;5019370;28;20448;-70
2023/06/12 13:41:47;;;;;;;;;;;30.30;58.20;;;;;;5017155;28;20014;-71
2023/06/12 13:44:16;;;;;;;;;;;30.40;57.70;;;;;;5016670;28;20305;-71
2023/06/12 13:46:43;;;;;;;;;;;30.60;58.50;;;;;;5015369;28;19921;-71
2023/06/12 13:49:08;;;;;;;;;;;30.80;59.50;;;;;;5034906;28;19921;-71
2023/06/12 13:51:36;;;;;;;;;;;30.90;57.00;;;;;;5021960;28;19925;-71
2023/06/12 13:54:02;;;;;;;;;;;30.90;57.40;;;;;;5020966;28;19921;-71
2023/06/12 13:56:28;;;;;;;;;;;30.80;57.50;;;;;;5020131;28;19925;-70
2023/06/12 13:58:57;;;;;;;;;;;30.70;56.80;;;;;;5021726;28;19967;-71
2023/06/12 14:01:25;;;;;;;;;;;30.50;56.40;;;;;;5019348;28;19963;-72
2023/06/12 14:03:53;;;;;;;;;;;30.70;57.10;;;;;;5020956;28;20106;-72
2023/06/12 14:06:22;;;;;;;;;;;31.00;56.60;;;;;;5016158;28;19996;-71
2023/06/12 14:08:48;;;;;;;;;;;30.90;56.10;;;;;;5009513;28;19979;-73
2023/06/12 14:11:13;;;;;;;;;;;30.80;56.60;;;;;;5009934;28;19939;-72
2023/06/12 14:13:39;;;;;;;;;;;30.70;54.50;;;;;;5018223;28;20544;-71